Time;durP1;ratioP1;P1;durP2;ratioP2;P2;SDS_P1;SDS_P2;PMS_P1;PMS_P2;Temp;Humidity;BMP_temperature;BMP_pressure;BME280_temperature;BME280_humidity;BME280_pressure;Samples;Min_cycle;Max_cycle;Signal;HPM_P1;HPM_P2
2023/04/11 00:02:33;;;;;;;10.23;9.47;;;11.10;54.90;;;;;;6284909;28;20813;-83
2023/04/11 00:05:38;;;;;;;11.07;10.17;;;11.10;55.00;;;;;;6287273;28;20229;-86
2023/04/11 00:08:43;;;;;;;10.63;9.73;;;11.00;55.00;;;;;;6286667;28;20728;-85
2023/04/11 00:11:46;;;;;;;10.73;9.93;;;11.00;55.10;;;;;;6283881;28;20238;-83
2023/04/11 00:14:52;;;;;;;10.90;10.10;;;11.00;55.10;;;;;;6287187;28;20601;-83
2023/04/11 00:17:57;;;;;;;10.00;9.20;;;10.90;55.10;;;;;;6287597;28;20600;-86
2023/04/11 00:21:03;;;;;;;10.37;9.57;;;10.90;55.20;;;;;;6281332;28;20234;-85
2023/04/11 00:24:07;;;;;;;9.97;9.30;;;10.90;55.10;;;;;;6287450;28;20400;-85
2023/04/11 00:27:13;;;;;;;10.53;9.63;;;10.90;55.30;;;;;;6288816;28;20229;-84
2023/04/11 00:30:16;;;;;;;10.33;9.53;;;10.90;55.30;;;;;;6289479;28;20229;-83
2023/04/11 00:33:19;;;;;;;10.27;9.47;;;10.80;55.50;;;;;;6306837;28;20793;-81
2023/04/11 00:36:25;;;;;;;10.63;9.83;;;10.80;55.50;;;;;;6308644;28;20305;-80
2023/04/11 00:39:33;;;;;;;10.27;9.47;;;10.70;55.50;;;;;;6317826;28;20229;-79
2023/04/11 00:42:37;;;;;;;10.30;9.50;;;10.70;55.60;;;;;;6314706;28;20225;-81
2023/04/11 00:45:40;;;;;;;9.90;9.27;;;10.70;55.60;;;;;;6317652;28;20222;-79
2023/04/11 00:48:44;;;;;;;9.87;9.07;;;10.70;55.60;;;;;;6314597;28;20225;-85
2023/04/11 00:51:48;;;;;;;9.40;8.43;;;10.70;55.60;;;;;;6284428;28;20344;-84
2023/04/11 00:54:52;;;;;;;10.40;9.60;;;10.60;55.70;;;;;;6286391;28;22791;-85
2023/04/11 00:57:55;;;;;;;9.73;9.03;;;10.60;55.60;;;;;;6287238;28;20239;-83
2023/04/11 01:00:59;;;;;;;10.63;9.73;;;10.60;55.70;;;;;;6282454;28;20855;-84
2023/04/11 01:04:05;;;;;;;10.00;9.23;;;10.60;55.70;;;;;;6306394;28;20213;-81
2023/04/11 01:07:11;;;;;;;10.10;9.33;;;10.50;55.70;;;;;;6310135;28;20243;-78
2023/04/11 01:10:16;;;;;;;10.30;9.50;;;10.60;55.80;;;;;;6309336;28;20251;-79
2023/04/11 01:13:19;;;;;;;9.63;8.87;;;10.50;55.80;;;;;;6322229;28;20236;-80
2023/04/11 01:16:23;;;;;;;10.50;9.60;;;10.60;55.70;;;;;;6320177;28;20326;-80
2023/04/11 01:19:26;;;;;;;10.20;9.30;;;10.60;55.70;;;;;;6322180;28;20221;-81
2023/04/11 01:22:31;;;;;;;10.30;9.57;;;10.50;55.60;;;;;;6322072;28;20237;-80
2023/04/11 01:25:36;;;;;;;10.57;9.67;;;10.50;55.80;;;;;;6317900;28;20316;-79
2023/04/11 01:28:40;;;;;;;10.20;9.30;;;10.50;55.90;;;;;;6330530;28;20232;-80
2023/04/11 01:31:43;;;;;;;10.13;9.40;;;10.40;56.00;;;;;;6321730;28;20232;-81
2023/04/11 01:34:49;;;;;;;9.57;8.87;;;10.40;56.00;;;;;;6320696;28;20257;-79
2023/04/11 01:37:52;;;;;;;10.40;9.53;;;10.40;56.00;;;;;;6315844;28;20225;-82
2023/04/11 01:40:58;;;;;;;10.03;9.10;;;10.40;55.90;;;;;;6320966;28;20245;-79
2023/04/11 01:44:01;;;;;;;10.20;9.50;;;10.50;56.00;;;;;;6322026;28;20233;-79
2023/04/11 01:47:04;;;;;;;10.90;10.10;;;10.50;55.90;;;;;;6314733;28;20260;-79
2023/04/11 01:50:08;;;;;;;10.03;9.23;;;10.40;56.20;;;;;;6321874;28;20229;-78
2023/04/11 01:53:12;;;;;;;9.60;9.00;;;10.40;56.00;;;;;;6320543;28;20392;-79
2023/04/11 01:56:19;;;;;;;9.67;8.93;;;10.50;56.10;;;;;;6317812;28;20217;-78
2023/04/11 01:59:22;;;;;;;9.60;8.90;;;10.40;56.00;;;;;;6313238;28;20224;-82
2023/04/11 02:02:25;;;;;;;10.30;9.50;;;10.30;56.20;;;;;;6320470;28;20231;-80
2023/04/11 02:05:29;;;;;;;10.27;9.33;;;10.40;56.30;;;;;;6315310;28;20372;-81
2023/04/11 02:08:32;;;;;;;10.30;9.50;;;10.40;56.10;;;;;;6320236;28;20260;-78
2023/04/11 02:11:36;;;;;;;10.77;9.87;;;10.40;56.00;;;;;;6326376;28;20291;-80
2023/04/11 02:14:42;;;;;;;10.67;9.87;;;10.50;55.90;;;;;;6320971;28;20240;-80
2023/04/11 02:17:45;;;;;;;11.00;10.00;;;10.40;56.20;;;;;;6320551;28;20252;-81
2023/04/11 02:20:49;;;;;;;10.27;9.57;;;10.30;56.20;;;;;;6314740;28;20656;-81
2023/04/11 02:23:52;;;;;;;10.73;9.87;;;10.40;56.10;;;;;;6289103;28;20610;-85
2023/04/11 02:26:56;;;;;;;10.10;9.30;;;10.40;56.20;;;;;;6291478;28;20248;-83
2023/04/11 02:30:00;;;;;;;9.90;9.20;;;10.30;56.50;;;;;;6289047;28;20322;-81
2023/04/11 02:33:03;;;;;;;10.27;9.40;;;10.30;56.40;;;;;;6286951;28;20279;-80
2023/04/11 02:36:07;;;;;;;10.80;10.00;;;10.20;56.30;;;;;;6286053;28;20249;-82
2023/04/11 02:39:10;;;;;;;10.20;9.30;;;10.30;56.20;;;;;;6297383;28;20235;-81
2023/04/11 02:42:15;;;;;;;10.50;9.67;;;10.40;56.20;;;;;;6290831;28;20313;-83
2023/04/11 02:45:18;;;;;;;10.47;9.60;;;10.30;56.50;;;;;;6289958;28;20737;-84
2023/04/11 02:48:21;;;;;;;10.33;9.43;;;10.20;56.50;;;;;;6289180;28;20599;-82
2023/04/11 02:51:24;;;;;;;9.50;8.80;;;10.30;56.60;;;;;;6289784;28;20241;-85
2023/04/11 02:54:27;;;;;;;10.53;9.30;;;10.20;56.60;;;;;;6287036;28;20851;-84
2023/04/11 02:57:32;;;;;;;10.60;9.70;;;10.20;56.80;;;;;;6271965;28;20244;-86
2023/04/11 03:00:36;;;;;;;9.77;9.07;;;10.20;56.80;;;;;;6291853;28;20253;-81
2023/04/11 03:03:39;;;;;;;10.07;9.37;;;10.20;56.80;;;;;;6318477;28;20247;-79
2023/04/11 03:06:43;;;;;;;10.50;9.70;;;10.10;56.90;;;;;;6319177;28;20231;-80
2023/04/11 03:09:46;;;;;;;10.07;9.20;;;10.10;57.30;;;;;;6314150;28;20248;-83
2023/04/11 03:12:50;;;;;;;10.13;9.40;;;10.10;57.20;;;;;;6314080;28;20236;-85
2023/04/11 03:15:53;;;;;;;9.73;9.03;;;10.00;57.50;;;;;;6288436;28;20283;-83
2023/04/11 03:18:57;;;;;;;10.50;9.70;;;10.10;57.00;;;;;;6287758;28;20252;-83
2023/04/11 03:22:01;;;;;;;10.53;9.73;;;10.10;57.10;;;;;;6287613;28;20240;-84
2023/04/11 03:25:06;;;;;;;10.33;9.53;;;10.00;57.40;;;;;;6287944;28;20312;-80
2023/04/11 03:28:10;;;;;;;10.27;9.47;;;10.00;57.40;;;;;;6280219;28;20779;-82
2023/04/11 03:31:14;;;;;;;10.07;9.37;;;10.00;57.60;;;;;;6292436;28;20625;-83
2023/04/11 03:34:17;;;;;;;10.10;9.40;;;10.00;57.40;;;;;;6272398;28;20241;-83
2023/04/11 03:37:21;;;;;;;10.87;9.97;;;10.00;57.60;;;;;;6286062;28;20639;-86
2023/04/11 03:40:24;;;;;;;10.43;9.63;;;10.00;57.60;;;;;;6276947;28;20244;-83
2023/04/11 03:43:29;;;;;;;10.77;9.87;;;10.00;57.50;;;;;;6287196;28;20247;-83
2023/04/11 03:46:32;;;;;;;10.57;9.70;;;9.90;57.80;;;;;;6287013;28;20259;-84
2023/04/11 03:49:35;;;;;;;10.40;9.50;;;10.00;57.80;;;;;;6280982;28;20298;-80
2023/04/11 03:52:38;;;;;;;10.60;9.70;;;10.10;57.40;;;;;;6284541;28;20641;-79
2023/04/11 03:55:41;;;;;;;10.40;9.50;;;10.10;57.30;;;;;;6282771;28;20264;-80
2023/04/11 03:58:46;;;;;;;10.30;9.47;;;10.20;57.50;;;;;;6279492;28;20229;-80
2023/04/11 04:01:49;;;;;;;11.33;10.20;;;10.10;58.00;;;;;;6282687;28;20230;-80
2023/04/11 04:04:57;;;;;;;10.60;9.80;;;10.00;59.00;;;;;;6285041;28;20226;-80
2023/04/11 04:08:00;;;;;;;11.20;10.30;;;10.00;59.60;;;;;;6282995;28;20255;-82
2023/04/11 04:11:03;;;;;;;9.97;9.27;;;9.80;60.40;;;;;;6285172;28;20947;-80
2023/04/11 04:14:07;;;;;;;10.70;9.80;;;9.80;60.00;;;;;;6283565;28;20456;-79
2023/04/11 04:17:11;;;;;;;11.63;10.73;;;9.80;60.30;;;;;;6282120;28;20241;-80
2023/04/11 04:20:14;;;;;;;11.47;10.37;;;9.70;60.20;;;;;;6285103;28;20247;-80
2023/04/11 04:23:17;;;;;;;9.70;9.00;;;9.60;60.60;;;;;;6283148;28;20226;-82
2023/04/11 04:26:23;;;;;;;11.50;10.40;;;9.70;60.50;;;;;;6285241;28;20344;-78
2023/04/11 04:29:32;;;;;;;11.10;10.10;;;9.60;61.20;;;;;;6277167;28;20720;-80
2023/04/11 04:32:37;;;;;;;10.10;9.30;;;9.60;61.80;;;;;;6279891;28;20478;-79
2023/04/11 04:35:40;;;;;;;10.33;9.53;;;9.50;62.20;;;;;;6282612;28;20240;-78
2023/04/11 04:38:44;;;;;;;10.57;9.77;;;9.50;63.40;;;;;;6282204;28;20237;-80
2023/04/11 04:41:48;;;;;;;11.50;10.43;;;9.40;65.00;;;;;;6277677;28;20926;-79
2023/04/11 04:44:54;;;;;;;11.20;10.20;;;9.30;65.00;;;;;;6287513;28;20785;-81
2023/04/11 04:47:57;;;;;;;11.43;10.50;;;9.40;65.80;;;;;;6283414;28;20236;-79
2023/04/11 04:51:00;;;;;;;11.27;10.33;;;9.20;67.30;;;;;;6291334;28;20237;-77
2023/04/11 04:54:04;;;;;;;11.50;10.40;;;9.00;68.40;;;;;;6292931;28;20271;-80
2023/04/11 04:57:08;;;;;;;11.27;10.17;;;9.00;69.00;;;;;;6277440;28;20230;-79
2023/04/11 05:00:14;;;;;;;11.97;11.00;;;8.90;69.40;;;;;;6286932;28;20244;-82
2023/04/11 05:03:19;;;;;;;10.63;9.73;;;8.90;69.90;;;;;;6287305;28;20240;-80
2023/04/11 05:06:23;;;;;;;10.90;10.00;;;8.80;70.40;;;;;;6286817;28;20721;-80
2023/04/11 05:09:26;;;;;;;12.20;11.17;;;8.70;71.10;;;;;;6291528;28;20324;-79
2023/04/11 05:12:29;;;;;;;12.87;11.63;;;8.80;71.10;;;;;;6284602;28;20320;-79
2023/04/11 05:15:33;;;;;;;13.00;11.90;;;8.60;71.90;;;;;;6286364;28;20237;-78
2023/04/11 05:18:36;;;;;;;12.17;10.97;;;8.60;72.00;;;;;;6289773;28;20244;-80
2023/04/11 05:21:40;;;;;;;12.13;11.03;;;8.50;72.50;;;;;;6289513;28;20237;-79
2023/04/11 05:24:43;;;;;;;12.13;10.93;;;8.60;72.20;;;;;;6313197;28;20247;-77
2023/04/11 05:27:46;;;;;;;12.43;11.37;;;8.60;72.10;;;;;;6320894;28;20220;-74
2023/04/11 05:30:50;;;;;;;12.23;11.23;;;8.70;71.80;;;;;;6318322;28;20296;-77
2023/04/11 05:33:54;;;;;;;11.87;10.93;;;8.60;71.90;;;;;;6308319;28;20231;-76
2023/04/11 05:36:57;;;;;;;12.70;11.47;;;8.60;72.80;;;;;;6303016;28;20693;-82
2023/04/11 05:40:01;;;;;;;13.90;12.67;;;8.50;73.20;;;;;;6295456;28;20554;-81
2023/04/11 05:43:04;;;;;;;11.87;10.87;;;8.50;73.70;;;;;;6301479;28;20229;-79
2023/04/11 05:46:09;;;;;;;11.87;10.87;;;8.40;74.20;;;;;;6295606;28;20448;-79
2023/04/11 05:49:12;;;;;;;12.13;11.13;;;8.50;74.10;;;;;;6288692;28;20724;-80
2023/04/11 05:52:15;;;;;;;13.07;11.87;;;8.50;74.20;;;;;;6288262;28;20252;-81
2023/04/11 05:55:18;;;;;;;12.90;11.77;;;8.50;74.30;;;;;;6288627;27;20259;-80
2023/04/11 05:58:22;;;;;;;12.93;11.50;;;8.50;75.00;;;;;;6288690;28;20526;-81
2023/04/11 06:01:26;;;;;;;12.17;11.07;;;8.50;75.20;;;;;;6287474;28;20233;-80
2023/04/11 06:04:31;;;;;;;12.40;11.40;;;8.50;75.10;;;;;;6284473;28;20316;-78
2023/04/11 06:07:34;;;;;;;13.30;12.00;;;8.50;75.60;;;;;;6284648;28;20749;-82
2023/04/11 06:10:37;;;;;;;12.80;11.80;;;8.50;76.00;;;;;;6304027;28;20238;-77
2023/04/11 06:13:40;;;;;;;14.10;12.70;;;8.40;76.30;;;;;;6320053;28;20256;-78
2023/04/11 06:16:45;;;;;;;12.63;11.60;;;8.40;76.80;;;;;;6319411;28;20267;-79
2023/04/11 06:19:48;;;;;;;12.57;11.40;;;8.50;76.80;;;;;;6318586;28;20321;-79
2023/04/11 06:22:51;;;;;;;12.83;11.63;;;8.50;77.10;;;;;;6319237;28;20241;-77
2023/04/11 06:25:54;;;;;;;12.53;11.27;;;8.60;76.80;;;;;;6319539;28;20239;-78
2023/04/11 06:28:57;;;;;;;12.50;11.40;;;8.80;76.60;;;;;;6319113;28;20813;-79
2023/04/11 06:32:02;;;;;;;13.93;12.53;;;8.90;76.60;;;;;;6313025;28;20239;-82
2023/04/11 06:35:06;;;;;;;11.93;10.77;;;9.00;76.10;;;;;;6291069;28;20316;-80
2023/04/11 06:38:09;;;;;;;12.17;11.07;;;9.10;75.70;;;;;;6285927;28;20256;-78
2023/04/11 06:41:12;;;;;;;12.43;11.43;;;9.00;75.60;;;;;;6291065;28;20256;-78
2023/04/11 06:44:15;;;;;;;12.33;11.23;;;9.00;75.70;;;;;;6290008;28;20312;-80
2023/04/11 06:47:20;;;;;;;12.20;11.23;;;9.00;75.70;;;;;;6284681;28;20307;-80
2023/04/11 06:50:23;;;;;;;12.60;11.40;;;9.00;75.80;;;;;;6289350;28;20254;-81
2023/04/11 06:53:26;;;;;;;12.87;11.77;;;9.00;75.90;;;;;;6287815;28;20229;-80
2023/04/11 06:56:29;;;;;;;12.47;11.27;;;9.00;76.00;;;;;;6282920;28;20237;-81
2023/04/11 06:59:33;;;;;;;12.17;10.97;;;9.20;75.60;;;;;;6289553;28;20243;-80
2023/04/11 07:02:39;;;;;;;12.83;11.47;;;9.00;76.10;;;;;;6309964;28;20238;-78
2023/04/11 07:05:42;;;;;;;12.27;11.23;;;9.00;76.20;;;;;;6319089;28;20719;-76
2023/04/11 07:08:46;;;;;;;13.33;12.03;;;9.10;76.10;;;;;;6313972;28;20221;-78
2023/04/11 07:11:49;;;;;;;12.07;10.97;;;9.10;75.90;;;;;;6317691;28;20320;-74
2023/04/11 07:14:52;;;;;;;12.73;11.53;;;9.10;76.10;;;;;;6319417;28;20257;-78
2023/04/11 07:17:57;;;;;;;12.50;11.40;;;9.00;76.70;;;;;;6311987;28;20279;-78
2023/04/11 07:21:00;;;;;;;13.73;12.43;;;9.10;77.00;;;;;;6289769;28;20238;-80
2023/04/11 07:24:04;;;;;;;12.50;11.40;;;9.10;76.80;;;;;;6287030;28;20324;-79
2023/04/11 07:27:07;;;;;;;12.90;11.67;;;9.20;76.60;;;;;;6290763;28;20239;-79
2023/04/11 07:30:11;;;;;;;12.80;11.63;;;9.20;76.50;;;;;;6283867;28;20250;-79
2023/04/11 07:33:15;;;;;;;12.87;11.67;;;9.20;76.40;;;;;;6285705;28;20795;-80
2023/04/11 07:36:19;;;;;;;14.07;12.60;;;9.30;76.30;;;;;;6281153;28;20277;-80
2023/04/11 07:39:22;;;;;;;13.23;11.97;;;9.30;76.50;;;;;;6299389;28;20237;-80
2023/04/11 07:42:25;;;;;;;13.27;11.97;;;9.40;76.50;;;;;;6284080;28;20696;-81
2023/04/11 07:45:28;;;;;;;13.30;11.97;;;9.40;76.50;;;;;;6302118;28;20256;-77
2023/04/11 07:48:33;;;;;;;12.80;11.60;;;9.40;76.50;;;;;;6315749;28;20248;-78
2023/04/11 07:51:36;;;;;;;12.10;10.90;;;9.60;76.40;;;;;;6317005;28;20281;-76
2023/04/11 07:54:39;;;;;;;11.90;10.80;;;9.70;76.00;;;;;;6316990;28;20293;-77
2023/04/11 07:57:42;;;;;;;13.23;11.87;;;9.80;75.90;;;;;;6295570;28;20237;-83
2023/04/11 08:00:46;;;;;;;12.60;11.37;;;9.90;75.50;;;;;;6285607;28;20247;-81
2023/04/11 08:03:52;;;;;;;11.70;10.60;;;10.00;75.10;;;;;;6286591;28;20252;-80
2023/04/11 08:06:56;;;;;;;11.27;10.27;;;10.00;75.10;;;;;;6283439;28;20237;-80
2023/04/11 08:09:59;;;;;;;10.63;9.67;;;10.00;74.40;;;;;;6287444;28;20870;-81
2023/04/11 08:13:02;;;;;;;11.80;10.70;;;9.90;74.70;;;;;;6286916;28;20609;-81
2023/04/11 08:16:08;;;;;;;11.07;10.03;;;9.90;74.60;;;;;;6281363;28;20579;-81
2023/04/11 08:19:13;;;;;;;10.27;9.27;;;9.70;74.60;;;;;;6286605;28;20628;-79
2023/04/11 08:22:16;;;;;;;10.47;9.43;;;9.70;74.40;;;;;;6280213;28;20261;-79
2023/04/11 08:25:21;;;;;;;11.00;10.00;;;9.60;74.60;;;;;;6277056;28;20585;-81
2023/04/11 08:28:24;;;;;;;10.13;9.23;;;9.50;74.90;;;;;;6280452;28;20237;-81
2023/04/11 08:31:28;;;;;;;9.67;8.87;;;9.40;75.20;;;;;;6286803;28;20248;-79
2023/04/11 08:34:33;;;;;;;9.13;8.53;;;9.40;75.90;;;;;;6267543;28;20237;-80
2023/04/11 08:37:36;;;;;;;7.80;7.20;;;9.40;75.70;;;;;;6280751;28;20738;-81
2023/04/11 08:40:39;;;;;;;7.97;7.27;;;9.40;75.50;;;;;;6281070;28;20259;-77
2023/04/11 08:43:44;;;;;;;6.83;6.23;;;9.40;74.60;;;;;;6287137;28;20244;-78
2023/04/11 08:46:48;;;;;;;6.50;5.93;;;9.30;74.30;;;;;;6278501;28;20748;-81
2023/04/11 08:49:53;;;;;;;5.87;5.57;;;9.30;74.10;;;;;;6286728;28;20236;-79
2023/04/11 08:53:01;;;;;;;5.97;5.57;;;9.20;74.10;;;;;;6285887;28;20229;-82
2023/04/11 08:56:05;;;;;;;6.30;5.70;;;9.20;74.40;;;;;;6283785;28;20233;-78
2023/04/11 08:59:08;;;;;;;5.77;5.33;;;9.20;74.90;;;;;;6286287;28;20233;-80
2023/04/11 09:02:11;;;;;;;6.10;5.60;;;9.10;74.30;;;;;;6283467;28;20233;-80
2023/04/11 09:05:25;;;;;;;5.80;4.63;;;9.20;74.00;;;;;;6282895;28;20689;-79
2023/04/11 09:08:38;;;;;;;4.83;4.30;;;9.20;73.60;;;;;;6284183;28;20351;-78
2023/04/11 09:11:54;;;;;;;4.80;4.40;;;9.20;73.50;;;;;;6277259;28;20268;-72
2023/04/11 09:14:57;;;;;;;4.57;4.27;;;9.20;72.50;;;;;;6280349;28;20243;-82
2023/04/11 09:18:00;;;;;;;4.73;4.03;;;9.40;72.40;;;;;;6285523;28;20233;-81
2023/04/11 09:21:07;;;;;;;7.27;4.20;;;9.60;71.80;;;;;;6282608;28;20240;-80
2023/04/11 09:24:18;;;;;;;5.47;4.87;;;9.70;70.70;;;;;;6284456;28;20325;-79
2023/04/11 09:27:23;;;;;;;4.60;4.20;;;9.80;69.10;;;;;;6285724;28;20226;-82
2023/04/11 09:30:26;;;;;;;6.57;4.17;;;10.00;68.90;;;;;;6289906;28;20234;-78
2023/04/11 09:33:30;;;;;;;7.17;5.93;;;10.20;68.60;;;;;;6287413;28;20398;-80
2023/04/11 09:36:35;;;;;;;4.37;3.87;;;10.20;68.50;;;;;;6290354;28;20638;-80
2023/04/11 09:39:38;;;;;;;5.00;4.20;;;10.40;67.40;;;;;;6287395;28;20732;-81
2023/04/11 09:42:41;;;;;;;4.53;4.20;;;10.50;67.50;;;;;;6289708;28;20237;-82
2023/04/11 09:45:45;;;;;;;4.47;3.90;;;10.80;68.00;;;;;;6291504;28;20378;-80
2023/04/11 09:48:57;;;;;;;7.30;3.80;;;11.00;65.60;;;;;;6289359;28;20257;-82
2023/04/11 09:52:01;;;;;;;4.10;3.80;;;10.90;65.30;;;;;;6288017;28;20244;-79
2023/04/11 09:55:07;;;;;;;6.70;3.97;;;10.70;65.20;;;;;;6290034;28;20682;-80
2023/04/11 09:58:12;;;;;;;4.53;4.00;;;10.80;65.40;;;;;;6286807;28;20342;-80
2023/04/11 10:01:18;;;;;;;3.60;3.33;;;10.90;64.70;;;;;;6310302;28;20233;-76
2023/04/11 10:04:22;;;;;;;8.70;3.73;;;11.10;63.90;;;;;;6319858;28;20240;-76
2023/04/11 10:07:28;;;;;;;4.03;3.73;;;11.20;64.30;;;;;;6319658;28;20245;-77
2023/04/11 10:10:32;;;;;;;4.40;3.87;;;11.30;64.00;;;;;;6318278;28;20474;-77
2023/04/11 10:13:40;;;;;;;3.80;3.40;;;11.30;63.90;;;;;;6292930;28;20241;-83
2023/04/11 10:17:11;;;;;;;3.73;3.43;;;11.30;62.70;;;;;;6288570;28;20444;-79
2023/04/11 10:20:45;;;;;;;5.50;4.60;;;11.30;62.20;;;;;;6287566;28;20241;-81
2023/04/11 10:24:09;;;;;;;4.03;3.70;;;11.50;62.60;;;;;;6276892;28;20358;-80
2023/04/11 10:27:14;;;;;;;3.37;3.17;;;11.60;61.90;;;;;;6288825;28;20237;-83
2023/04/11 10:30:17;;;;;;;3.50;3.17;;;11.50;61.50;;;;;;6286222;28;20229;-82
2023/04/11 10:33:24;;;;;;;3.37;3.10;;;11.60;60.70;;;;;;6288791;28;20396;-81
2023/04/11 10:36:27;;;;;;;3.63;3.30;;;11.70;59.90;;;;;;6287284;28;20238;-81
2023/04/11 10:40:08;;;;;;;4.40;3.50;;;11.90;60.10;;;;;;6290562;28;20265;-80
2023/04/11 10:43:20;;;;;;;3.00;2.77;;;12.10;59.50;;;;;;6279600;28;20767;-79
2023/04/11 10:46:25;;;;;;;7.77;5.10;;;12.70;58.60;;;;;;6288204;28;21379;-78
2023/04/11 10:49:36;;;;;;;4.80;3.00;;;12.50;58.40;;;;;;6288735;28;20264;-80
2023/04/11 10:52:40;;;;;;;3.40;3.10;;;12.50;58.20;;;;;;6280016;28;20241;-80
2023/04/11 10:55:47;;;;;;;3.37;3.07;;;12.70;57.90;;;;;;6288487;28;20240;-77
2023/04/11 10:58:52;;;;;;;3.47;3.17;;;12.70;57.50;;;;;;6285197;28;20324;-82
2023/04/11 11:01:55;;;;;;;6.70;3.30;;;12.70;57.30;;;;;;6285719;28;20260;-82
2023/04/11 11:05:01;;;;;;;3.43;3.13;;;12.70;56.80;;;;;;6288235;28;20233;-77
2023/04/11 11:08:05;;;;;;;3.30;3.00;;;12.50;57.10;;;;;;6285606;28;21370;-82
2023/04/11 11:11:11;;;;;;;3.90;3.03;;;12.20;58.10;;;;;;6290127;28;20243;-79
2023/04/11 11:14:28;;;;;;;3.70;3.33;;;11.90;59.10;;;;;;6287785;28;20641;-80
2023/04/11 11:17:32;;;;;;;3.50;3.20;;;11.90;59.40;;;;;;6282634;28;20242;-82
2023/04/11 11:20:36;;;;;;;3.10;2.90;;;12.00;59.10;;;;;;6287828;28;20241;-82
2023/04/11 11:23:39;;;;;;;3.40;3.20;;;11.60;59.80;;;;;;6286990;28;20249;-80
2023/04/11 11:26:45;;;;;;;4.10;3.50;;;11.30;60.70;;;;;;6283233;28;20735;-80
2023/04/11 11:29:49;;;;;;;3.80;3.50;;;11.40;61.80;;;;;;6284453;28;20245;-80
2023/04/11 11:32:52;;;;;;;3.47;3.37;;;11.80;61.20;;;;;;6286949;28;20573;-82
2023/04/11 11:36:00;;;;;;;3.40;3.30;;;12.10;60.30;;;;;;6284932;28;20244;-80
2023/04/11 11:39:04;;;;;;;3.70;3.47;;;12.30;59.00;;;;;;6287119;28;20237;-80
2023/04/11 11:42:09;;;;;;;3.63;3.50;;;12.20;59.30;;;;;;6286452;28;20318;-83
2023/04/11 11:45:18;;;;;;;3.20;3.20;;;12.00;59.50;;;;;;6287822;28;20230;-81
2023/04/11 11:48:22;;;;;;;3.47;3.13;;;12.20;58.60;;;;;;6287525;28;20242;-76
2023/04/11 11:51:26;;;;;;;5.07;3.30;;;12.50;57.80;;;;;;6286689;28;20677;-80
2023/04/11 11:54:29;;;;;;;3.20;3.00;;;12.50;58.00;;;;;;6289899;28;20244;-78
2023/04/11 11:57:34;;;;;;;8.47;2.87;;;12.50;58.10;;;;;;6290635;28;20236;-79
2023/04/11 12:00:38;;;;;;;2.80;2.60;;;12.60;58.10;;;;;;6284870;28;20237;-80
2023/04/11 12:03:42;;;;;;;3.23;2.90;;;13.10;57.20;;;;;;6286655;27;20240;-79
2023/04/11 12:06:45;;;;;;;3.17;2.90;;;13.20;56.70;;;;;;6286068;28;20391;-83
2023/04/11 12:09:49;;;;;;;2.93;2.73;;;13.20;56.50;;;;;;6276932;28;20609;-80
2023/04/11 12:12:54;;;;;;;2.67;2.53;;;13.50;56.00;;;;;;6286565;28;20705;-81
2023/04/11 12:16:00;;;;;;;3.57;2.30;;;13.30;56.20;;;;;;6300487;28;20273;-77
2023/04/11 12:19:04;;;;;;;2.83;2.63;;;13.10;54.80;;;;;;6315306;28;20229;-77
2023/04/11 12:22:07;;;;;;;2.53;2.43;;;12.90;54.40;;;;;;6314737;28;20271;-77
2023/04/11 12:25:11;;;;;;;2.70;2.60;;;12.70;54.80;;;;;;6299080;28;20229;-81
2023/04/11 12:28:16;;;;;;;2.37;2.33;;;12.50;55.60;;;;;;6288189;28;20229;-80
2023/04/11 12:31:20;;;;;;;2.80;2.57;;;12.00;56.70;;;;;;6275356;28;20320;-82
2023/04/11 12:34:23;;;;;;;2.50;2.40;;;11.90;57.00;;;;;;6286824;28;20237;-77
2023/04/11 12:37:26;;;;;;;2.93;2.60;;;12.00;57.00;;;;;;6279209;28;20622;-80
2023/04/11 12:40:29;;;;;;;2.40;2.30;;;12.30;56.50;;;;;;6288256;28;20236;-80
2023/04/11 12:43:34;;;;;;;3.60;2.70;;;12.20;57.10;;;;;;6286666;28;20368;-81
2023/04/11 12:46:37;;;;;;;3.67;2.73;;;12.10;56.90;;;;;;6277674;28;20238;-80
2023/04/11 12:49:40;;;;;;;4.67;2.90;;;12.00;58.70;;;;;;6286926;28;20229;-79
2023/04/11 12:52:43;;;;;;;2.77;2.67;;;11.90;58.90;;;;;;6285786;28;20614;-80
2023/04/11 12:55:46;;;;;;;2.93;2.80;;;11.90;60.20;;;;;;6282716;28;20288;-76
2023/04/11 12:58:51;;;;;;;3.33;3.13;;;11.90;60.30;;;;;;6285986;28;20736;-81
2023/04/11 13:01:54;;;;;;;3.40;3.20;;;11.90;60.30;;;;;;6280511;28;20233;-79
2023/04/11 13:04:59;;;;;;;3.20;3.00;;;12.00;60.10;;;;;;6281279;28;20233;-78
2023/04/11 13:08:02;;;;;;;3.40;3.20;;;11.90;60.80;;;;;;6289361;28;20225;-82
2023/04/11 13:11:06;;;;;;;3.23;3.13;;;11.70;61.00;;;;;;6290241;28;20248;-80
2023/04/11 13:14:10;;;;;;;3.37;3.17;;;11.70;61.20;;;;;;6288446;28;20237;-83
2023/04/11 13:17:14;;;;;;;3.33;3.10;;;11.50;61.40;;;;;;6289760;28;20249;-81
2023/04/11 13:20:17;;;;;;;2.57;2.43;;;11.40;62.30;;;;;;6291372;28;20383;-77
2023/04/11 13:23:20;;;;;;;2.60;2.40;;;11.10;60.20;;;;;;6282821;28;20233;-80
2023/04/11 13:26:23;;;;;;;2.40;2.30;;;11.00;58.40;;;;;;6290808;28;20331;-81
2023/04/11 13:29:28;;;;;;;2.60;2.50;;;10.90;58.00;;;;;;6291209;28;20241;-81
2023/04/11 13:32:31;;;;;;;2.70;2.70;;;10.70;60.70;;;;;;6287551;28;20233;-78
2023/04/11 13:35:35;;;;;;;2.77;2.43;;;10.30;62.70;;;;;;6290167;28;20229;-80
2023/04/11 13:38:38;;;;;;;2.40;2.40;;;10.00;63.50;;;;;;6291033;28;20248;-80
2023/04/11 13:41:41;;;;;;;2.20;2.20;;;9.80;64.00;;;;;;6286729;28;20261;-82
2023/04/11 13:44:46;;;;;;;2.50;2.40;;;9.60;64.20;;;;;;6291036;28;20229;-82
2023/04/11 13:47:51;;;;;;;2.70;2.60;;;9.40;64.80;;;;;;6290959;28;20366;-83
2023/04/11 13:50:56;;;;;;;3.30;3.07;;;9.20;65.60;;;;;;6283692;28;20257;-79
2023/04/11 13:53:59;;;;;;;2.97;2.90;;;9.20;65.70;;;;;;6289779;28;20840;-80
2023/04/11 13:57:06;;;;;;;3.07;2.77;;;9.10;65.70;;;;;;6295884;28;20237;-78
2023/04/11 14:00:11;;;;;;;2.80;2.80;;;9.00;66.00;;;;;;6298223;28;20580;-80
2023/04/11 14:03:15;;;;;;;2.77;2.60;;;8.90;66.00;;;;;;6296989;28;20672;-81
2023/04/11 14:06:18;;;;;;;3.00;2.80;;;8.80;67.00;;;;;;6303373;28;20405;-75
2023/04/11 14:09:21;;;;;;;2.80;2.80;;;8.60;67.80;;;;;;6310121;28;20267;-76
2023/04/11 14:12:24;;;;;;;2.90;2.90;;;8.60;68.20;;;;;;6317632;28;20248;-75
2023/04/11 14:15:30;;;;;;;2.77;2.77;;;8.40;68.80;;;;;;6295806;28;20723;-80
2023/04/11 14:18:33;;;;;;;2.67;2.50;;;8.30;69.50;;;;;;6314117;28;20249;-78
2023/04/11 14:21:36;;;;;;;2.30;2.30;;;8.20;69.20;;;;;;6312370;28;20315;-76
2023/04/11 14:24:39;;;;;;;2.60;2.60;;;8.00;69.00;;;;;;6294851;28;20359;-80
2023/04/11 14:27:43;;;;;;;2.70;2.50;;;8.00;68.90;;;;;;6287638;28;20490;-81
2023/04/11 14:30:47;;;;;;;2.50;2.50;;;7.80;70.20;;;;;;6290452;28;20640;-79
2023/04/11 14:33:53;;;;;;;3.17;2.97;;;7.60;71.20;;;;;;6292941;28;20241;-80
2023/04/11 14:36:56;;;;;;;2.73;2.63;;;7.60;71.30;;;;;;6297983;28;20229;-79
2023/04/11 14:40:00;;;;;;;2.63;2.53;;;7.60;72.00;;;;;;6298013;28;20296;-79
2023/04/11 14:43:03;;;;;;;3.30;3.00;;;7.70;71.60;;;;;;6291876;28;20533;-80
2023/04/11 14:46:08;;;;;;;3.10;2.90;;;7.70;71.10;;;;;;6289840;28;20329;-80
2023/04/11 14:49:11;;;;;;;3.17;3.07;;;7.70;71.10;;;;;;6287170;28;20233;-79
2023/04/11 14:52:14;;;;;;;2.93;2.90;;;7.80;71.40;;;;;;6285497;28;20329;-81
2023/04/11 14:55:18;;;;;;;3.33;3.20;;;7.80;70.80;;;;;;6288186;28;20236;-82
2023/04/11 14:58:21;;;;;;;3.40;3.30;;;8.00;71.20;;;;;;6286017;28;20319;-80
2023/04/11 15:01:28;;;;;;;4.00;3.70;;;8.00;70.50;;;;;;6283087;28;20697;-81
2023/04/11 15:04:31;;;;;;;4.70;3.90;;;8.10;70.70;;;;;;6288064;28;20233;-77
2023/04/11 15:07:35;;;;;;;3.50;3.20;;;8.20;70.60;;;;;;6283645;28;20369;-82
2023/04/11 15:10:38;;;;;;;3.70;3.47;;;8.40;70.90;;;;;;6281258;28;20237;-80
2023/04/11 15:13:41;;;;;;;3.67;3.50;;;8.60;70.50;;;;;;6289063;28;20233;-81
2023/04/11 15:16:45;;;;;;;3.67;3.47;;;8.80;69.50;;;;;;6295107;28;20245;-78
2023/04/11 15:19:49;;;;;;;3.00;2.90;;;8.90;68.60;;;;;;6289190;28;20897;-80
2023/04/11 15:22:52;;;;;;;2.80;2.63;;;9.00;68.90;;;;;;6294805;28;20249;-79
2023/04/11 15:25:56;;;;;;;2.83;2.73;;;9.20;67.90;;;;;;6279168;28;20260;-81
2023/04/11 15:29:00;;;;;;;3.20;3.10;;;9.20;65.70;;;;;;6285846;28;20249;-80
2023/04/11 15:32:06;;;;;;;2.87;2.77;;;9.20;66.10;;;;;;6286468;28;20775;-80
2023/04/11 15:35:09;;;;;;;2.50;2.50;;;9.20;66.20;;;;;;6287228;28;20248;-79
2023/04/11 15:38:14;;;;;;;2.70;2.60;;;9.20;65.20;;;;;;6287234;28;20395;-82
2023/04/11 15:41:17;;;;;;;2.80;2.70;;;9.40;64.50;;;;;;6286241;28;20233;-82
2023/04/11 15:44:20;;;;;;;3.10;3.00;;;9.60;64.00;;;;;;6284171;28;20244;-79
2023/04/11 15:47:24;;;;;;;3.27;3.17;;;9.60;63.70;;;;;;6286046;28;20233;-81
2023/04/11 15:50:28;;;;;;;2.80;2.60;;;9.80;62.90;;;;;;6285480;28;20754;-80
2023/04/11 15:53:31;;;;;;;2.97;2.87;;;9.90;63.40;;;;;;6283137;28;20248;-80
2023/04/11 15:56:35;;;;;;;2.73;2.70;;;10.00;63.20;;;;;;6286455;28;20326;-81